Time,TemperatureF,DewpointF,PressureIn,WindDirection,WindDirectionDegrees,WindSpeedMPH,WindSpeedGustMPH,Humidity,HourlyPrecipIn,Conditions,Clouds,dailyrainin,SoftwareType,DateUTC
2013-02-17 00:10:00,26.1,21.1,29.82,ESE,112,4.2,-999.0,81,-99.99,,,0.00,Acu-Link.com,2013-02-17 06:10:00,
2013-02-17 00:42:00,25.3,20.6,29.82,ESE,112,4.7,-999.0,82,-99.99,,,0.00,Acu-Link.com,2013-02-17 06:42:00,
2013-02-17 00:58:00,25.2,20.2,29.81,SE,135,3.7,-999.0,81,-99.99,,,0.00,Acu-Link.com,2013-02-17 06:58:00,
2013-02-17 01:13:00,24.8,19.8,29.82,SSE,157,4.2,-999.0,81,-99.99,,,0.00,Acu-Link.com,2013-02-17 07:13:00,
2013-02-17 01:29:00,24.3,19.3,29.82,ESE,112,3.7,-999.0,81,-99.99,,,0.00,Acu-Link.com,2013-02-17 07:29:00,
2013-02-17 01:44:00,24.3,19.6,29.82,ESE,112,4.2,-999.0,82,-99.99,,,0.00,Acu-Link.com,2013-02-17 07:44:00,
2013-02-17 01:59:00,24.8,20.1,29.82,ESE,112,4.7,-999.0,82,-99.99,,,0.00,Acu-Link.com,2013-02-17 07:59:00,
2013-02-17 02:14:00,24.3,19.6,29.82,ESE,112,4.2,-999.0,82,-99.99,,,0.00,Acu-Link.com,2013-02-17 08:14:00,
2013-02-17 02:31:00,23.7,19.3,29.81,ESE,112,4.7,-999.0,83,-99.99,,,0.00,Acu-Link.com,2013-02-17 08:31:00,
2013-02-17 02:46:00,23.5,19.4,29.81,ESE,112,5.8,-999.0,84,-99.99,,,0.00,Acu-Link.com,2013-02-17 08:46:00,
2013-02-17 03:16:00,23.9,19.8,29.80,ESE,112,5.8,-999.0,84,-99.99,,,0.00,Acu-Link.com,2013-02-17 09:16:00,
2013-02-17 03:32:00,23.7,19.6,29.80,ESE,112,5.3,-999.0,84,-99.99,,,0.00,Acu-Link.com,2013-02-17 09:32:00,
2013-02-17 03:47:00,23.9,19.8,29.80,ESE,112,5.3,-999.0,84,-99.99,,,0.00,Acu-Link.com,2013-02-17 09:47:00,
2013-02-17 04:02:00,23.7,19.3,29.79,ESE,112,6.3,-999.0,83,-99.99,,,0.00,Acu-Link.com,2013-02-17 10:02:00,
2013-02-17 04:17:00,23.4,19.0,29.79,ESE,112,5.8,-999.0,83,-99.99,,,0.00,Acu-Link.com,2013-02-17 10:17:00,
2013-02-17 04:32:00,23.2,18.8,29.78,ESE,112,6.8,-999.0,83,-99.99,,,0.00,Acu-Link.com,2013-02-17 10:32:00,
2013-02-17 04:47:00,23.2,18.8,29.78,ESE,112,5.8,-999.0,83,-99.99,,,0.00,Acu-Link.com,2013-02-17 10:47:00,
2013-02-17 05:05:00,22.6,18.2,29.78,SE,135,5.8,-999.0,83,-99.99,,,0.00,Acu-Link.com,2013-02-17 11:05:00,
2013-02-17 05:20:00,22.6,18.2,29.78,ESE,112,5.3,-999.0,83,-99.99,,,0.00,Acu-Link.com,2013-02-17 11:20:00,
2013-02-17 06:08:00,22.3,17.9,29.78,SE,135,6.8,-999.0,83,-99.99,,,0.00,Acu-Link.com,2013-02-17 12:08:00,
2013-02-17 06:24:00,23.4,18.7,29.77,SSE,157,7.3,-999.0,82,-99.99,,,0.00,Acu-Link.com,2013-02-17 12:24:00,
2013-02-17 06:39:00,22.8,18.1,29.76,SSE,157,5.8,-999.0,82,-99.99,,,0.00,Acu-Link.com,2013-02-17 12:39:00,
2013-02-17 06:54:00,22.6,17.9,29.76,ESE,112,6.3,-999.0,82,-99.99,,,0.00,Acu-Link.com,2013-02-17 12:54:00,
2013-02-17 07:10:00,22.1,17.5,29.76,ESE,112,6.3,-999.0,82,-99.99,,,0.00,Acu-Link.com,2013-02-17 13:10:00,
2013-02-17 07:26:00,21.9,17.3,29.76,SE,135,6.8,-999.0,82,-99.99,,,0.00,Acu-Link.com,2013-02-17 13:26:00,
2013-02-17 07:42:00,23.5,18.3,29.75,SSE,157,6.8,-999.0,80,-99.99,,,0.00,Acu-Link.com,2013-02-17 13:42:00,
2013-02-17 07:57:00,25.2,19.0,29.76,ESE,112,7.3,-999.0,77,-99.99,,,0.00,Acu-Link.com,2013-02-17 13:57:00,
2013-02-17 08:12:00,26.2,19.4,29.75,SE,135,9.4,-999.0,75,-99.99,,,0.00,Acu-Link.com,2013-02-17 14:12:00,
2013-02-17 08:38:00,27.1,19.9,29.75,SE,135,8.9,-999.0,74,-99.99,,,0.00,Acu-Link.com,2013-02-17 14:38:00,
2013-02-17 08:56:00,28.8,20.3,29.74,SSE,157,8.9,-999.0,70,-99.99,,,0.00,Acu-Link.com,2013-02-17 14:56:00,
2013-02-17 09:16:00,30.2,20.9,29.73,SE,135,10.4,-999.0,68,-99.99,,,0.00,Acu-Link.com,2013-02-17 15:16:00,
2013-02-17 09:31:00,30.7,20.7,29.72,SE,135,9.9,-999.0,66,-99.99,,,0.00,Acu-Link.com,2013-02-17 15:31:00,
2013-02-17 09:46:00,31.8,21.4,29.72,SSE,157,9.4,-999.0,65,-99.99,,,0.00,Acu-Link.com,2013-02-17 15:46:00,
2013-02-17 10:05:00,33.1,23.0,29.71,SE,135,11.9,-999.0,66,-99.99,,,0.00,Acu-Link.com,2013-02-17 16:05:00,
2013-02-17 10:20:00,34.0,23.1,29.71,ESE,112,9.9,-999.0,64,-99.99,,,0.00,Acu-Link.com,2013-02-17 16:20:00,
2013-02-17 10:35:00,34.5,23.6,29.71,SE,135,9.4,-999.0,64,-99.99,,,0.00,Acu-Link.com,2013-02-17 16:35:00,
2013-02-17 10:51:00,35.4,24.5,29.70,ESE,112,10.4,-999.0,64,-99.99,,,0.00,Acu-Link.com,2013-02-17 16:51:00,
2013-02-17 11:06:00,36.5,25.5,29.69,SSE,157,11.4,-999.0,64,-99.99,,,0.00,Acu-Link.com,2013-02-17 17:06:00,
2013-02-17 11:21:00,36.5,25.1,29.69,SE,135,13.5,-999.0,63,-99.99,,,0.00,Acu-Link.com,2013-02-17 17:21:00,
2013-02-17 11:36:00,37.6,26.2,29.69,ESE,112,11.4,-999.0,63,-99.99,,,0.00,Acu-Link.com,2013-02-17 17:36:00,
2013-02-17 11:52:00,38.5,27.0,29.67,SSE,157,11.9,-999.0,63,-99.99,,,0.00,Acu-Link.com,2013-02-17 17:52:00,
2013-02-17 12:07:00,39.9,28.0,29.66,SE,135,11.9,-999.0,62,-99.99,,,0.01,Acu-Link.com,2013-02-17 18:07:00,
2013-02-17 12:22:00,40.5,28.1,29.65,ESE,112,11.4,-999.0,61,-99.99,,,0.01,Acu-Link.com,2013-02-17 18:22:00,
2013-02-17 12:37:00,41.4,29.8,29.63,SSE,157,14.0,-999.0,63,-99.99,,,0.01,Acu-Link.com,2013-02-17 18:37:00,
2013-02-17 12:53:00,42.3,29.4,29.62,SE,135,17.6,-999.0,60,-99.99,,,0.01,Acu-Link.com,2013-02-17 18:53:00,
2013-02-17 13:08:00,43.7,30.7,29.60,SE,135,15.0,-999.0,60,-99.99,,,0.01,Acu-Link.com,2013-02-17 19:08:00,
2013-02-17 13:23:00,45.3,31.8,29.59,SSE,157,17.1,-999.0,59,-99.99,,,0.01,Acu-Link.com,2013-02-17 19:23:00,
2013-02-17 13:38:00,46.4,32.9,29.58,SSE,157,17.1,-999.0,59,-99.99,,,0.01,Acu-Link.com,2013-02-17 19:38:00,
2013-02-17 13:53:00,46.6,33.0,29.57,SSE,157,13.0,-999.0,59,-99.99,,,0.01,Acu-Link.com,2013-02-17 19:53:00,
2013-02-17 14:08:00,48.4,33.9,29.55,SE,135,14.5,-999.0,57,-99.99,,,0.01,Acu-Link.com,2013-02-17 20:08:00,
2013-02-17 14:23:00,50.0,35.4,29.55,SSE,157,13.0,-999.0,57,-99.99,,,0.01,Acu-Link.com,2013-02-17 20:23:00,
2013-02-17 14:38:00,51.3,36.6,29.54,SSE,157,13.0,-999.0,57,-99.99,,,0.01,Acu-Link.com,2013-02-17 20:38:00,
2013-02-17 14:54:00,52.0,37.7,29.53,ESE,112,11.4,-999.0,58,-99.99,,,0.01,Acu-Link.com,2013-02-17 20:54:00,
2013-02-17 15:09:00,52.9,37.6,29.52,ESE,112,15.5,-999.0,56,-99.99,,,0.01,Acu-Link.com,2013-02-17 21:09:00,
2013-02-17 15:24:00,52.2,37.0,29.52,SE,135,15.5,-999.0,56,-99.99,,,0.01,Acu-Link.com,2013-02-17 21:24:00,
2013-02-17 15:40:00,53.4,38.1,29.51,ESE,112,15.5,-999.0,56,-99.99,,,0.01,Acu-Link.com,2013-02-17 21:40:00,
2013-02-17 15:55:00,54.5,38.7,29.50,SE,135,14.5,-999.0,55,-99.99,,,0.01,Acu-Link.com,2013-02-17 21:55:00,
2013-02-17 16:10:00,53.8,38.5,29.49,SE,135,13.5,-999.0,56,-99.99,,,0.01,Acu-Link.com,2013-02-17 22:10:00,
2013-02-17 16:25:00,53.1,38.3,29.48,SE,135,13.5,-999.0,57,-99.99,,,0.01,Acu-Link.com,2013-02-17 22:25:00,
2013-02-17 16:40:00,52.3,38.0,29.47,ESE,112,12.5,-999.0,58,-99.99,,,0.01,Acu-Link.com,2013-02-17 22:40:00,
2013-02-17 16:56:00,51.6,37.7,29.47,SE,135,9.9,-999.0,59,-99.99,,,0.01,Acu-Link.com,2013-02-17 22:56:00,
2013-02-17 17:11:00,50.5,37.1,29.46,SE,135,8.9,-999.0,60,-99.99,,,0.01,Acu-Link.com,2013-02-17 23:11:00,
2013-02-17 17:26:00,49.5,36.2,29.46,ESE,112,8.3,-999.0,60,-99.99,,,0.01,Acu-Link.com,2013-02-17 23:26:00,
2013-02-17 17:41:00,48.4,36.0,29.46,SSE,157,10.4,-999.0,62,-99.99,,,0.01,Acu-Link.com,2013-02-17 23:41:00,
2013-02-17 17:57:00,46.9,35.4,29.47,SSE,157,6.3,-999.0,64,-99.99,,,0.01,Acu-Link.com,2013-02-17 23:57:00,
2013-02-17 18:12:00,45.9,34.8,29.46,SE,135,6.8,-999.0,65,-99.99,,,0.01,Acu-Link.com,2013-02-18 00:12:00,
2013-02-17 18:27:00,45.1,34.4,29.46,SSE,157,8.9,-999.0,66,-99.99,,,0.01,Acu-Link.com,2013-02-18 00:27:00,
2013-02-17 18:42:00,44.8,34.1,29.46,SE,135,7.8,-999.0,66,-99.99,,,0.01,Acu-Link.com,2013-02-18 00:42:00,
2013-02-17 18:58:00,45.0,34.7,29.46,SE,135,7.3,-999.0,67,-99.99,,,0.01,Acu-Link.com,2013-02-18 00:58:00,
2013-02-17 19:13:00,45.1,34.8,29.46,ESE,112,7.8,-999.0,67,-99.99,,,0.01,Acu-Link.com,2013-02-18 01:13:00,
2013-02-17 19:28:00,44.1,33.9,29.46,SE,135,7.3,-999.0,67,-99.99,,,0.01,Acu-Link.com,2013-02-18 01:28:00,
2013-02-17 19:44:00,43.7,33.8,29.46,ESE,112,6.8,-999.0,68,-99.99,,,0.01,Acu-Link.com,2013-02-18 01:44:00,
2013-02-17 19:59:00,42.8,33.3,29.45,ESE,112,7.3,-999.0,69,-99.99,,,0.01,Acu-Link.com,2013-02-18 01:59:00,
2013-02-17 20:14:00,41.9,32.5,29.45,ESE,112,8.3,-999.0,69,-99.99,,,0.01,Acu-Link.com,2013-02-18 02:14:00,
2013-02-17 20:29:00,41.5,32.5,29.45,ESE,112,8.3,-999.0,70,-99.99,,,0.01,Acu-Link.com,2013-02-18 02:29:00,
2013-02-17 20:45:00,41.7,32.6,29.44,SE,135,8.9,-999.0,70,-99.99,,,0.01,Acu-Link.com,2013-02-18 02:45:00,
2013-02-17 21:00:00,41.2,32.2,29.44,SE,135,9.4,-999.0,70,-99.99,,,0.01,Acu-Link.com,2013-02-18 03:00:00,
2013-02-17 21:15:00,40.3,31.7,29.44,ESE,112,8.3,-999.0,71,-99.99,,,0.01,Acu-Link.com,2013-02-18 03:15:00,
2013-02-17 21:30:00,39.7,31.1,29.44,SE,135,7.3,-999.0,71,-99.99,,,0.01,Acu-Link.com,2013-02-18 03:30:00,
2013-02-17 21:45:00,39.7,31.1,29.43,SE,135,7.8,-999.0,71,-99.99,,,0.01,Acu-Link.com,2013-02-18 03:45:00,
2013-02-17 22:00:00,39.0,30.8,29.42,SSE,157,6.3,-999.0,72,-99.99,,,0.01,Acu-Link.com,2013-02-18 04:00:00,
2013-02-17 22:16:00,38.7,30.5,29.42,SSE,157,7.3,-999.0,72,-99.99,,,0.01,Acu-Link.com,2013-02-18 04:16:00,
2013-02-17 22:31:00,37.9,30.0,29.41,ESE,112,7.3,-999.0,73,-99.99,,,0.01,Acu-Link.com,2013-02-18 04:31:00,
2013-02-17 22:46:00,37.4,29.9,29.40,ESE,112,6.3,-999.0,74,-99.99,,,0.01,Acu-Link.com,2013-02-18 04:46:00,
2013-02-17 23:01:00,37.8,30.3,29.40,ESE,112,7.8,-999.0,74,-99.99,,,0.01,Acu-Link.com,2013-02-18 05:01:00,
2013-02-17 23:16:00,37.8,30.3,29.40,ESE,112,7.3,-999.0,74,-99.99,,,0.01,Acu-Link.com,2013-02-18 05:16:00,
2013-02-17 23:31:00,37.4,29.9,29.39,SE,135,8.3,-999.0,74,-99.99,,,0.01,Acu-Link.com,2013-02-18 05:31:00,
2013-02-17 23:46:00,36.9,29.7,29.38,SSE,157,6.3,-999.0,75,-99.99,,,0.01,Acu-Link.com,2013-02-18 05:46:00,